createdAt,value
2022-10-05T00:01:28.087Z,73.42
2022-10-05T00:04:03.774Z,73.32
2022-10-05T00:06:31.985Z,73.29
2022-10-05T00:09:02.353Z,73.28
2022-10-05T00:11:30.531Z,73.63
2022-10-05T00:14:00.896Z,73.36
2022-10-05T00:16:30.705Z,73.38
2022-10-05T00:19:01.184Z,73.40
2022-10-05T00:21:30.839Z,73.33
2022-10-05T00:24:02.870Z,73.49
2022-10-05T00:26:35.162Z,73.37
2022-10-05T00:29:17.301Z,73.59
2022-10-05T00:31:45.553Z,73.50
2022-10-05T00:34:13.705Z,73.47
2022-10-05T00:36:42.058Z,73.64
2022-10-05T00:39:10.644Z,73.77
2022-10-05T00:42:00.134Z,73.74
2022-10-05T00:44:43.315Z,73.76
2022-10-05T00:47:29.237Z,73.67
2022-10-05T00:50:23.093Z,73.93
2022-10-05T00:53:04.323Z,73.68
2022-10-05T00:55:44.518Z,73.83
2022-10-05T00:58:26.408Z,73.98
2022-10-05T01:01:11.335Z,74.02
2022-10-05T01:03:53.661Z,73.93
2022-10-05T01:06:30.860Z,74.06
2022-10-05T01:09:10.541Z,74.16
2022-10-05T01:11:44.831Z,74.05
2022-10-05T01:14:20.548Z,74.59
2022-10-05T01:16:55.603Z,74.00
2022-10-05T01:19:46.881Z,73.99
2022-10-05T01:22:30.476Z,74.16
2022-10-05T01:25:13.195Z,74.11
2022-10-05T01:27:53.514Z,74.28
2022-10-05T01:30:23.228Z,74.60
2022-10-05T01:33:01.084Z,74.31
2022-10-05T01:35:45.681Z,74.60
2022-10-05T01:38:33.681Z,74.57
2022-10-05T01:41:13.882Z,74.57
2022-10-05T01:43:49.262Z,74.56
2022-10-05T01:46:30.332Z,74.67
2022-10-05T01:49:18.901Z,74.54
2022-10-05T01:52:02.031Z,74.56
2022-10-05T01:54:41.176Z,74.41
2022-10-05T01:57:21.672Z,74.76
2022-10-05T02:00:06.563Z,74.83
2022-10-05T02:02:40.768Z,75.01
2022-10-05T02:05:16.243Z,75.03
2022-10-05T02:07:50.514Z,74.95
2022-10-05T02:10:25.443Z,75.08
2022-10-05T02:13:03.399Z,75.03
2022-10-05T02:15:41.224Z,75.14
2022-10-05T02:18:21.441Z,75.08
2022-10-05T02:20:56.738Z,75.32
2022-10-05T02:23:29.410Z,75.43
2022-10-05T02:26:00.003Z,75.51
2022-10-05T02:28:34.936Z,75.80
2022-10-05T02:31:10.803Z,75.78
2022-10-05T02:33:39.534Z,75.85
2022-10-05T02:36:15.941Z,76.18
2022-10-05T02:39:00.310Z,75.69
2022-10-05T02:41:44.050Z,75.91
2022-10-05T02:44:24.114Z,75.99
2022-10-05T02:47:00.750Z,76.06
2022-10-05T02:49:40.011Z,76.06
2022-10-05T02:52:15.399Z,75.72
2022-10-05T02:54:55.444Z,76.24
2022-10-05T02:57:32.071Z,76.28
2022-10-05T03:00:07.225Z,76.01
2022-10-05T03:02:42.521Z,76.12
2022-10-05T03:05:20.444Z,76.40
2022-10-05T03:07:56.906Z,76.24
2022-10-05T03:10:31.417Z,76.35
2022-10-05T03:13:07.553Z,76.33
2022-10-05T03:16:04.491Z,76.23
2022-10-05T03:18:53.592Z,76.49
2022-10-05T03:21:43.738Z,76.46
2022-10-05T03:24:28.559Z,76.34
2022-10-05T03:27:04.621Z,76.70
2022-10-05T03:29:41.475Z,76.57
2022-10-05T03:32:22.326Z,76.59
2022-10-05T03:34:58.283Z,76.54
2022-10-05T03:37:37.779Z,76.71
2022-10-05T03:40:16.510Z,76.80
2022-10-05T03:43:13.212Z,76.74
2022-10-05T03:45:51.181Z,76.84
2022-10-05T03:48:27.190Z,76.59
2022-10-05T03:51:09.396Z,76.50
2022-10-05T03:53:43.508Z,76.78
2022-10-05T03:56:17.983Z,76.66
2022-10-05T03:58:54.591Z,76.51
2022-10-05T04:01:37.207Z,76.66
2022-10-05T04:04:10.946Z,76.49
2022-10-05T04:06:47.429Z,76.60
2022-10-05T04:09:19.572Z,76.61
2022-10-05T04:11:53.884Z,76.50
2022-10-05T04:14:27.899Z,76.58
2022-10-05T04:17:01.230Z,76.47
2022-10-05T04:19:33.939Z,76.94
2022-10-05T04:22:11.031Z,76.42
2022-10-05T04:24:45.726Z,76.65
2022-10-05T04:27:19.524Z,76.56
2022-10-05T04:29:55.037Z,76.70
2022-10-05T04:32:37.563Z,76.61
2022-10-05T04:35:44.134Z,76.61
2022-10-05T04:38:31.296Z,76.50
2022-10-05T04:41:17.985Z,76.73
2022-10-05T04:44:02.911Z,76.70
2022-10-05T04:46:48.187Z,76.56
2022-10-05T04:49:35.641Z,76.58
2022-10-05T04:52:18.203Z,76.33
2022-10-05T04:55:05.465Z,76.53
2022-10-05T04:57:41.905Z,76.49
2022-10-05T05:00:24.914Z,76.46
2022-10-05T05:03:26.078Z,76.59
2022-10-05T05:06:18.324Z,76.75
2022-10-05T05:09:15.029Z,76.36
2022-10-05T05:12:03.927Z,76.78
2022-10-05T05:14:48.004Z,76.75
2022-10-05T05:17:35.106Z,76.96
2022-10-05T05:20:18.298Z,76.88
2022-10-05T05:22:53.972Z,76.98
2022-10-05T05:25:36.354Z,77.15
2022-10-05T05:28:18.932Z,77.15
2022-10-05T05:30:57.009Z,77.18
2022-10-05T05:33:31.121Z,77.22
2022-10-05T05:36:23.934Z,77.45
2022-10-05T05:39:07.532Z,77.47
2022-10-05T05:41:40.462Z,77.40
2022-10-05T05:44:22.584Z,77.38
2022-10-05T05:47:03.926Z,77.71
2022-10-05T05:49:48.099Z,77.32
2022-10-05T05:52:24.007Z,77.66
2022-10-05T05:54:59.180Z,77.38
2022-10-05T05:57:33.626Z,77.38
2022-10-05T06:00:19.511Z,77.56
2022-10-05T06:02:54.337Z,77.67
2022-10-05T06:05:31.829Z,77.65
2022-10-05T06:08:08.388Z,77.32
2022-10-05T06:10:43.713Z,77.53
2022-10-05T06:13:20.309Z,77.46
2022-10-05T06:15:55.315Z,77.40
2022-10-05T06:18:24.755Z,77.57
2022-10-05T06:20:59.897Z,77.05
2022-10-05T06:23:39.468Z,77.21
2022-10-05T06:26:26.047Z,77.18
2022-10-05T06:28:59.551Z,77.32
2022-10-05T06:31:59.075Z,77.33
2022-10-05T06:34:57.631Z,77.41
2022-10-05T06:37:46.002Z,77.40
2022-10-05T06:40:28.674Z,77.38
2022-10-05T06:43:17.024Z,76.95
2022-10-05T06:46:05.113Z,77.23
2022-10-05T06:48:51.914Z,77.00
2022-10-05T06:51:27.340Z,77.00
2022-10-05T06:54:04.561Z,77.13
2022-10-05T06:56:40.456Z,76.83
2022-10-05T06:59:15.170Z,76.73
2022-10-05T07:01:55.942Z,76.62
2022-10-05T07:04:53.614Z,76.64
2022-10-05T07:07:31.036Z,76.46
2022-10-05T07:10:17.302Z,76.44
2022-10-05T07:13:04.019Z,76.46
2022-10-05T07:15:43.817Z,76.43
2022-10-05T07:18:40.208Z,76.09
2022-10-05T07:21:21.758Z,76.41
2022-10-05T07:24:01.950Z,76.22
2022-10-05T07:26:36.738Z,76.13
2022-10-05T07:29:33.697Z,75.77
2022-10-05T07:32:15.689Z,75.81
2022-10-05T07:34:55.997Z,75.81
2022-10-05T07:37:53.382Z,75.54
2022-10-05T07:40:29.409Z,75.52
2022-10-05T07:43:14.394Z,75.52
2022-10-05T07:45:48.097Z,75.11
2022-10-05T07:48:21.994Z,75.31
2022-10-05T07:51:01.359Z,75.43
2022-10-05T07:53:38.512Z,75.43
2022-10-05T07:56:15.969Z,75.30
2022-10-05T07:58:48.401Z,75.26
2022-10-05T08:01:22.646Z,75.20
2022-10-05T08:03:55.414Z,74.91
2022-10-05T08:06:41.776Z,74.58
2022-10-05T08:09:31.691Z,74.63
2022-10-05T08:12:15.460Z,74.37
2022-10-05T08:14:53.745Z,74.42
2022-10-05T08:17:37.021Z,74.64
2022-10-05T08:20:20.075Z,74.03
2022-10-05T08:22:56.654Z,73.64
2022-10-05T08:25:35.844Z,73.44
2022-10-05T08:28:11.734Z,73.49
2022-10-05T08:30:55.681Z,73.16
2022-10-05T08:33:26.864Z,72.75
2022-10-05T08:36:05.722Z,72.84
2022-10-05T08:38:35.738Z,73.00
2022-10-05T08:41:59.104Z,72.42
2022-10-05T08:45:19.829Z,72.37
2022-10-05T08:48:45.843Z,71.76
2022-10-05T08:52:00.351Z,71.76
2022-10-05T08:54:48.029Z,71.46
2022-10-05T08:57:44.257Z,71.00
2022-10-05T09:00:18.668Z,70.87
2022-10-05T09:03:19.440Z,70.61
2022-10-05T09:06:26.617Z,70.29
2022-10-05T09:09:32.217Z,69.90
2022-10-05T09:12:44.290Z,69.42
2022-10-05T09:15:44.120Z,69.00
2022-10-05T09:18:50.649Z,68.99
2022-10-05T09:21:40.851Z,68.22
2022-10-05T09:24:26.182Z,68.42
2022-10-05T09:27:04.824Z,67.84
2022-10-05T09:30:23.231Z,68.03
2022-10-05T09:33:28.164Z,67.47
2022-10-05T09:37:07.343Z,67.63
2022-10-05T09:40:29.119Z,67.74
2022-10-05T09:43:45.183Z,66.91
2022-10-05T09:46:45.995Z,67.19
2022-10-05T09:49:48.162Z,66.39
2022-10-05T09:52:53.435Z,66.23
2022-10-05T09:55:50.704Z,65.93
2022-10-05T09:58:50.758Z,65.65
2022-10-05T10:02:22.244Z,65.36
2022-10-05T10:05:20.172Z,65.17
2022-10-05T10:08:11.450Z,65.00
2022-10-05T10:11:01.368Z,64.81
2022-10-05T10:14:17.619Z,64.90
2022-10-05T10:17:07.900Z,64.53
2022-10-05T10:20:14.631Z,64.50
2022-10-05T10:23:11.073Z,64.09
2022-10-05T10:26:25.479Z,64.37
2022-10-05T10:29:23.280Z,64.36
2022-10-05T10:32:14.130Z,64.08
2022-10-05T10:35:12.992Z,64.03
2022-10-05T10:38:24.771Z,64.05
2022-10-05T10:41:50.493Z,63.68
2022-10-05T10:45:21.209Z,63.51
2022-10-05T10:48:03.613Z,63.24
2022-10-05T10:51:13.552Z,63.25
2022-10-05T10:54:37.895Z,63.08
2022-10-05T10:57:10.740Z,63.23
2022-10-05T11:00:24.437Z,63.18
2022-10-05T11:03:45.544Z,63.05
2022-10-05T11:06:46.803Z,63.18
2022-10-05T11:09:33.894Z,63.07
2022-10-05T11:13:07.325Z,63.09
2022-10-05T11:16:00.536Z,63.05
2022-10-05T11:18:53.375Z,63.04
2022-10-05T11:21:34.222Z,62.98
2022-10-05T11:24:50.198Z,62.86
2022-10-05T11:27:40.395Z,62.97
2022-10-05T11:31:03.857Z,62.72
2022-10-05T11:34:31.267Z,63.07
2022-10-05T11:37:51.812Z,62.82
2022-10-05T11:41:12.624Z,62.90
2022-10-05T11:44:20.013Z,62.99
2022-10-05T11:46:58.439Z,63.04
2022-10-05T11:49:37.479Z,62.80
2022-10-05T11:52:14.218Z,62.68
2022-10-05T11:55:17.672Z,62.61
2022-10-05T11:57:52.787Z,62.54
2022-10-05T12:00:24.000Z,62.55
2022-10-05T12:03:11.558Z,62.60
2022-10-05T12:05:52.751Z,62.79
2022-10-05T12:08:37.405Z,62.88
2022-10-05T12:11:24.045Z,62.95
2022-10-05T12:13:59.065Z,62.72
2022-10-05T12:16:34.263Z,62.82
2022-10-05T12:19:13.515Z,63.20
2022-10-05T12:21:49.887Z,62.89
2022-10-05T12:24:28.075Z,63.11
2022-10-05T12:27:01.274Z,63.03
2022-10-05T12:29:38.850Z,62.86
2022-10-05T12:32:17.057Z,63.17
2022-10-05T12:35:01.800Z,63.09
2022-10-05T12:37:43.424Z,63.29
2022-10-05T12:40:34.902Z,63.44
2022-10-05T12:43:13.241Z,63.14
2022-10-05T12:46:00.283Z,63.23
2022-10-05T12:49:16.211Z,63.60
2022-10-05T12:51:49.386Z,63.75
2022-10-05T12:54:25.916Z,63.77
2022-10-05T12:56:59.127Z,63.72
2022-10-05T12:59:41.814Z,63.67
2022-10-05T13:02:29.456Z,64.11
2022-10-05T13:05:06.070Z,63.96
2022-10-05T13:07:49.295Z,64.15
2022-10-05T13:10:32.493Z,63.97
2022-10-05T13:13:18.491Z,63.96
2022-10-05T13:15:53.272Z,63.82
2022-10-05T13:18:31.145Z,64.17
2022-10-05T13:21:07.289Z,64.00
2022-10-05T13:23:53.801Z,64.08
2022-10-05T13:26:34.540Z,64.26
2022-10-05T13:29:16.855Z,64.25
2022-10-05T13:31:49.196Z,64.51
2022-10-05T13:34:28.035Z,64.18
2022-10-05T13:37:10.664Z,63.93
2022-10-05T13:40:00.147Z,63.74
2022-10-05T13:42:37.849Z,63.50
2022-10-05T13:45:15.126Z,63.08
2022-10-05T13:47:58.018Z,63.30
2022-10-05T13:50:33.441Z,62.99
2022-10-05T13:53:14.828Z,62.96
2022-10-05T13:55:50.075Z,62.72
2022-10-05T13:58:33.666Z,62.84
2022-10-05T14:01:06.497Z,62.73
2022-10-05T14:03:37.476Z,62.83
2022-10-05T14:06:13.960Z,62.68
2022-10-05T14:08:52.997Z,62.75
2022-10-05T14:11:32.147Z,63.14
2022-10-05T14:14:16.299Z,62.71
2022-10-05T14:16:54.415Z,62.46
2022-10-05T14:19:28.991Z,62.37
2022-10-05T14:22:02.363Z,62.11
2022-10-05T14:24:49.185Z,61.96
2022-10-05T14:27:26.967Z,61.50
2022-10-05T14:30:00.754Z,61.27
2022-10-05T14:32:33.050Z,61.06
2022-10-05T14:35:14.113Z,61.31
2022-10-05T14:37:51.911Z,60.83
2022-10-05T14:40:30.968Z,60.95
2022-10-05T14:43:01.764Z,60.74
2022-10-05T14:45:33.325Z,60.90
2022-10-05T14:48:12.278Z,61.13
2022-10-05T14:50:55.530Z,60.86
2022-10-05T14:53:26.362Z,61.40
2022-10-05T14:56:53.187Z,61.28
2022-10-05T14:59:37.370Z,61.65
2022-10-05T15:02:35.251Z,62.10
2022-10-05T15:05:14.345Z,62.39
2022-10-05T15:07:44.972Z,62.78
2022-10-05T15:10:29.871Z,62.71
2022-10-05T15:13:11.494Z,62.93
2022-10-05T15:15:48.785Z,62.90
2022-10-05T15:18:32.364Z,63.38
2022-10-05T15:21:26.445Z,63.54
2022-10-05T15:23:58.623Z,63.73
2022-10-05T15:26:44.163Z,63.99
2022-10-05T15:29:32.878Z,63.93
2022-10-05T15:32:15.808Z,64.23
2022-10-05T15:35:07.139Z,64.51
2022-10-05T15:37:43.127Z,64.66
2022-10-05T15:40:23.008Z,64.91
2022-10-05T15:42:57.691Z,65.12
2022-10-05T15:45:32.752Z,64.97
2022-10-05T15:48:04.779Z,65.21
2022-10-05T15:50:44.429Z,65.67
2022-10-05T15:53:21.280Z,65.59
2022-10-05T15:55:55.805Z,65.53
2022-10-05T15:58:51.436Z,65.27
2022-10-05T16:01:27.565Z,65.42
2022-10-05T16:04:02.369Z,65.19
2022-10-05T16:06:56.722Z,65.87
2022-10-05T16:09:56.153Z,65.60
2022-10-05T16:12:38.619Z,65.68
2022-10-05T16:15:26.369Z,65.92
2022-10-05T16:18:43.694Z,66.30
2022-10-05T16:21:26.872Z,66.72
2022-10-05T16:24:15.562Z,66.72
2022-10-05T16:26:58.803Z,66.72
2022-10-05T16:29:40.737Z,66.73
2022-10-05T16:32:15.289Z,66.88
2022-10-05T16:35:02.682Z,66.75
2022-10-05T16:37:41.199Z,66.68
2022-10-05T16:40:20.930Z,66.71
2022-10-05T16:43:07.260Z,66.70
2022-10-05T16:45:51.747Z,66.63
2022-10-05T16:48:26.817Z,66.78
2022-10-05T16:51:11.533Z,66.65
2022-10-05T16:53:46.442Z,66.87
2022-10-05T16:56:23.354Z,66.71
2022-10-05T16:59:06.993Z,67.00
2022-10-05T17:01:52.227Z,66.75
2022-10-05T17:04:41.824Z,66.62
2022-10-05T17:07:44.395Z,66.61
2022-10-05T17:10:40.314Z,66.67
2022-10-05T17:13:28.444Z,66.40
2022-10-05T17:16:09.164Z,65.94
2022-10-05T17:19:27.843Z,65.72
2022-10-05T17:22:00.586Z,65.68
2022-10-05T17:24:42.958Z,65.52
2022-10-05T17:27:36.137Z,65.70
2022-10-05T17:31:09.804Z,65.09
2022-10-05T17:34:30.040Z,64.90
2022-10-05T17:37:04.758Z,65.21
2022-10-05T17:39:52.349Z,64.87
2022-10-05T17:42:47.266Z,64.38
2022-10-05T17:45:54.633Z,64.27
2022-10-05T17:49:06.697Z,64.54
2022-10-05T17:52:43.057Z,64.56
2022-10-05T17:55:30.146Z,64.98
2022-10-05T17:58:01.487Z,64.58
2022-10-05T18:00:44.373Z,64.36
2022-10-05T18:03:40.984Z,64.61
2022-10-05T18:06:37.347Z,64.82
2022-10-05T18:09:36.597Z,64.90
2022-10-05T18:12:45.197Z,65.08
2022-10-05T18:15:46.515Z,64.88
2022-10-05T18:18:56.361Z,65.15
2022-10-05T18:21:40.046Z,65.08
2022-10-05T18:25:05.721Z,65.50
2022-10-05T18:28:09.904Z,65.34
2022-10-05T18:30:58.639Z,65.39
2022-10-05T18:33:59.631Z,65.52
2022-10-05T18:37:03.407Z,65.46
2022-10-05T18:39:51.489Z,65.80
2022-10-05T18:42:28.718Z,65.53
2022-10-05T18:45:01.524Z,65.54
2022-10-05T18:47:40.438Z,65.68
2022-10-05T18:50:28.498Z,65.74
2022-10-05T18:53:18.030Z,65.69
2022-10-05T18:55:55.139Z,65.87
2022-10-05T18:58:31.227Z,65.93
2022-10-05T19:01:27.951Z,65.78
2022-10-05T19:04:14.049Z,66.08
2022-10-05T19:06:54.352Z,65.90
2022-10-05T19:09:45.174Z,66.10
2022-10-05T19:12:29.267Z,66.25
2022-10-05T19:15:11.896Z,66.55
2022-10-05T19:18:26.667Z,66.25
2022-10-05T19:21:03.903Z,66.66
2022-10-05T19:24:15.548Z,66.46
2022-10-05T19:27:02.667Z,66.62
2022-10-05T19:29:48.425Z,66.65
2022-10-05T19:32:26.207Z,66.76
2022-10-05T19:35:10.452Z,66.73
2022-10-05T19:37:47.964Z,67.21
2022-10-05T19:40:29.230Z,67.52
2022-10-05T19:43:23.835Z,68.72
2022-10-05T19:46:08.833Z,70.73
2022-10-05T19:48:44.382Z,72.80
2022-10-05T19:51:16.686Z,74.31
2022-10-05T19:53:50.455Z,75.43
2022-10-05T19:56:21.210Z,76.49
2022-10-05T19:58:51.897Z,77.65
2022-10-05T20:01:30.846Z,78.33
2022-10-05T20:03:59.395Z,79.20
2022-10-05T20:06:29.573Z,80.19
2022-10-05T20:09:03.732Z,80.64
2022-10-05T20:11:34.688Z,81.06
2022-10-05T20:14:20.928Z,82.13
2022-10-05T20:17:44.564Z,82.49
2022-10-05T20:20:32.168Z,82.90
2022-10-05T20:23:23.242Z,83.34
2022-10-05T20:26:05.533Z,83.82
2022-10-05T20:28:34.234Z,84.11
2022-10-05T20:31:02.593Z,84.56
2022-10-05T20:33:34.282Z,85.40
2022-10-05T20:36:03.899Z,85.40
2022-10-05T20:38:40.634Z,85.78
2022-10-05T20:41:09.497Z,85.96
2022-10-05T20:43:39.317Z,85.95
2022-10-05T20:46:07.965Z,86.29
2022-10-05T20:48:37.399Z,86.65
2022-10-05T20:51:05.883Z,86.79
2022-10-05T20:53:34.046Z,86.52
2022-10-05T20:56:02.398Z,86.96
2022-10-05T20:58:30.965Z,87.17
2022-10-05T21:01:18.402Z,87.29
2022-10-05T21:03:48.323Z,87.42
2022-10-05T21:06:17.872Z,87.30
2022-10-05T21:08:46.294Z,87.72
2022-10-05T21:11:15.131Z,87.54
2022-10-05T21:13:44.761Z,88.01
2022-10-05T21:16:14.008Z,88.11
2022-10-05T21:18:44.385Z,88.56
2022-10-05T21:21:14.276Z,88.20
2022-10-05T21:23:42.356Z,88.21
2022-10-05T21:26:11.700Z,88.12
2022-10-05T21:28:40.268Z,88.80
2022-10-05T21:31:08.927Z,88.57
2022-10-05T21:33:37.524Z,88.39
2022-10-05T21:36:06.106Z,88.74
2022-10-05T21:38:36.610Z,88.04
2022-10-05T21:41:05.008Z,87.72
2022-10-05T21:43:33.487Z,88.36
2022-10-05T21:46:02.215Z,88.05
2022-10-05T21:48:32.175Z,88.68
2022-10-05T21:51:01.259Z,88.59
2022-10-05T21:53:36.953Z,88.77
2022-10-05T21:56:10.840Z,88.52
2022-10-05T21:58:40.193Z,88.60
2022-10-05T22:01:08.971Z,88.12
2022-10-05T22:03:38.002Z,88.05
2022-10-05T22:06:06.916Z,88.24
2022-10-05T22:08:36.687Z,88.02
2022-10-05T22:11:13.110Z,88.50
2022-10-05T22:13:44.604Z,88.08
2022-10-05T22:16:13.647Z,88.16
2022-10-05T22:18:42.541Z,88.65
2022-10-05T22:21:13.007Z,88.34
2022-10-05T22:23:44.954Z,88.38
2022-10-05T22:26:16.662Z,88.61
2022-10-05T22:28:46.683Z,88.77
2022-10-05T22:31:15.327Z,89.02
2022-10-05T22:33:43.948Z,88.98
2022-10-05T22:36:12.070Z,89.69
2022-10-05T22:38:40.207Z,89.16
2022-10-05T22:41:12.507Z,89.64
2022-10-05T22:43:40.986Z,89.49
2022-10-05T22:46:10.801Z,89.68
2022-10-05T22:48:39.087Z,89.89
2022-10-05T22:51:07.916Z,89.85
2022-10-05T22:53:36.546Z,90.18
2022-10-05T22:56:10.402Z,90.11
2022-10-05T22:58:40.904Z,89.87
2022-10-05T23:01:11.436Z,90.17
2022-10-05T23:03:40.319Z,90.11
2022-10-05T23:06:10.873Z,90.20
2022-10-05T23:08:41.634Z,90.33
2022-10-05T23:11:12.336Z,90.43
2022-10-05T23:13:42.289Z,90.99
2022-10-05T23:16:13.637Z,90.32
2022-10-05T23:18:45.365Z,90.60
2022-10-05T23:21:13.812Z,90.37
2022-10-05T23:23:47.243Z,90.27
2022-10-05T23:26:16.742Z,90.81
2022-10-05T23:28:47.525Z,90.53
2022-10-05T23:31:18.007Z,90.96
2022-10-05T23:33:46.258Z,90.62
2022-10-05T23:36:17.163Z,91.32
2022-10-05T23:38:46.444Z,91.03
2022-10-05T23:41:15.972Z,91.17
2022-10-05T23:43:45.494Z,91.10
2022-10-05T23:46:15.221Z,91.28
2022-10-05T23:48:43.436Z,90.68
2022-10-05T23:51:14.169Z,90.73
2022-10-05T23:53:42.322Z,90.85
2022-10-05T23:56:10.414Z,91.38
2022-10-05T23:58:38.540Z,90.63
